Scroll down
FLIGHT INFORMATION
Cathay Pacific

CPA837

At Arrival Gate

CYVR
 VHHH
DATE: 2020-12-06
GATE: 
GATE DEPARTURE: 20:43
TAKEOFF: 20:57
DATE: 2020-12-07
GATE:  -
LANDING: 10:24
GATE ARRIVAL: 10:28
FLIGHT DATA
Crew: 
Speed: 
951 kph
Altitude: 
38,021 ft
Stage Length: 
10,269.3 km
Block Time: 
13.7 hrs
Flight Time: 
13.5 hrs
Fuel Used: 
107,593 kg
Cleared Route: 
TRACK DATA
50,000 ft 1,000 kts
AIRCRAFT INFO AND CUMULATIVE STATS
Aircraft Type: 
B77W
Registration: 
SELCAL: 
JQCR
MSN/LN: 
36158 / 783
Operator: 
Total Flights: 
4
Total Block Time: 
39.3 hrs
Total Flight Time: 
38.5 hrs
Total Fuel Used: 
307,694 kg
DATALINK LOG | Newest first | Current as of: 2022-09-29 23:42:48
LABEL SEQUENCE CONTENT Dn/Up
QD544010:28 20.4▼ Dn
QC504310:24▼ Dn
2U3845VHHH 061630Z VRB02KT 8000 FEW030 SCT035 18/11 Q1021 NOSIG▲ Up
2S3844VHHH▼ Dn
QB142120:57▼ Dn
QA000920:43 257.9▼ Dn
A35312CLEARED TO VHHH VIA QQ YZT KATCH B757 CJAYY 58N160W PUGGY ECOMI NATES R220 NRKEY R220 NODAN R217 ELDAK Y512 GTC V30 KMC Y382 SOTOM Y382 WAKIT Y282 POPPY Y34 SUKMO Y50 IGMON A1 BULAN A1 ELATO V522 ABBEY ABEY3A. SQUAWK 3471.▲ Up
2U5309CYVR 060400Z VRB04KT 20SM SCT120 BKN220 07/02 A3006 RMK AC4CI1 SLP180▲ Up
2S5308CYVR▼ Dn
Q05200[LINK ACK]▲ Up
Q05200[LINK TEST]▼ Dn


AIRCRAFT HISTORY
FLIGHT DATE FLIGHT NO. ORIGIN DESTINATION CLEARED ROUTE BLOCK TIME FLIGHT TIME FUEL USED PILOT
2021-07-08CPA708KMCO LOWW KMCO GUANO FEMON VIYAP SUSYQ TAALN JROSS RAYVO FKN KATZN MANTA PLUME SHERL DUNEE SARDI SHLEP HOFFI AJJAY EBONY ALLRY 5150N 5240N 5230N 5220N LIMRI XETBO LORLA EVRIN NEKAP LAZTU ABDUK NUMPO PUPJO INLAK KONAN KOK SPI PELIX MATUG BOMBI TENLO DEXIT VENEN LOWW9 hrs8.9 hrs150,654 lbAlex K.
2021-07-08CPA708KORD KMCO KORD EARND ELANR EMMLY ERECO IIU GLAZR AHN CESKI TRASY JEFOI SHEMP KMCO2.2 hrs2 hrs38,753 lbAlex K.
2020-12-24CPA806VHHH KORD VHHH DE07L ROVER RAMEN OCEAN RASSE CONGA ENVAR DADON EXTRA RENOT TONGA TOROX ANLOT PILOX SANAS KUDOS LEKOS MORSU MOLKA MAMOD MUMBA MELEN MOMPA MIDAI MADOG MEXIR IMPAL OTOWA ANKIX IGMIS MOSLO TASOT LAKOS LIGNI POROT KALNA N4200.0E16000.0 N4500.0E17000.0 N4800.0E18000.0 N5000.0W17000.0 N5100.0W16000.0 N5100.0W15000.0 N5000.0W14000.0 PRETY TAMRU SEFIX CASDY YVR CFDDH SHUKA CASCD TWISP GEG HILIE MLP HLN BIL RECAP DPR FSD HAYNS ONTIJ MCW ZZIPR KORD14.5 hrs14.2 hrs251,740 lbMichael Roth
2020-12-06CPA837CYVR VHHH 13.7 hrs13.5 hrs237,202 lbMichael Roth